Terminal Aerodrome Forecast
Issued by NWS Paducah, KY

Home | Current Version | Previous Version | Text Only | Print | Product List | Glossary On
Versions: 1 2 3 4 5 6 7 8 9 10 11 12 13 14 15 16 17 18 19 20 21
081
FTUS43 KPAH 301211 AAB
TAFEVV
TAF AMD
KEVV 301211Z 3012/0112 19009KT P6SM -SHRA FEW020 OVC090
     FM301600 18015G25KT 4SM TSRA BR OVC035CB
     FM302300 17018G28KT P6SM -SHRA VCTS OVC035CB
     FM010300 20015G25KT P6SM -SHRA OVC030
     FM010800 21009KT P6SM BKN150=

USA.gov is the U.S. government's official web portal to all federal, state and local government web resources and services.